Dugspur, VA (24325)

8:54 AM EDT on October 18, 2017 (GMT -0400)
snoweathr | | Change Station
Active Advisory: Frost Advisory

Elev 2375 ft 36.78 °N, 80.55 °W | Updated 1 second ago

Clear
Clear
33.3 °F
Feels Like 33 °F
N
0.7
Wind Variable Wind from North
Gusts 1.3 mph

Today
High -- | Low -- °F
--% Chance of Precip.
Yesterday
High -- | Low -- °F
Precip. -- in
Pressure 30.37 in
Visibility 10.0 miles
Clouds Clear
Windchill 33 °F
Dew Point 31 °F
Humidity 92%
Rainfall 0.00 in
Snow Depth Not available.
7:32 AM 6:41 PM
Waning Crescent, 2% visible
METAR KHLX 181235Z AUTO 00000KT 10SM CLR 03/01 A3037 RMK AO2 T00260006
Pressure 30.37 in
Visibility 10.0 miles
Clouds Clear
Windchill 33 °F
Dew Point 31 °F
Humidity 92%
Rainfall 0.00 in
Snow Depth Not available.
7:32 AM 6:41 PM
Waning Crescent, 2% visible
METAR KHLX 181235Z AUTO 00000KT 10SM CLR 03/01 A3037 RMK AO2 T00260006

Get Your Daily Forecast Email!

Thanks for signing up!

Be on the lookout for a verification email in your inbox.

You'll start receiving severe weather alerts in your inbox..

×

10-Day Weather Forecast

Almanac

Astronomy

Oct. 18, 2017 Rise Set
Actual Time
Civil Twilight
Nautical Twilight
Astronomical Twilight
Moon
Length of Visible Light
Length of Day
Tomorrow will be .
, % of the Moon is Illuminated

Today's Extremes

State Highs State Lows

Community

WunderPhotos

Category 6

Welcome to Category 6. This is the collective home for Weather Underground's featured writeups by Dr. Jeff Masters (right), Bob Henson (left), Chris Burt, and other regular contributors.

Nearby

Air Quality

  Air Quality AQ Index Pollutant
Not available.

Snow Depth

Station Depth Elevation

Earthquake Activity

City Distance Mag. Time & Date
Minimum magnitude displayed is 2.5.

Coastal Water Temperatures

Place Temperature

Stations

Nearby Weather Stations

Station Location Temp. Windchill Dew Point Humidity Wind Precip. Elev Updated Type
                   

Watches & Warnings

Frost Advisory
Issued: 4:31 AM EDT Oct. 18, 2017 – National Weather Service

... Frost advisory remains in effect until 9 am EDT this morning...

* locations... west of the Blue Ridge mountains including
southeast West Virginia.

* Hazards... areas of frost especially in the valleys.

* Temperatures... in the lower to mid 30s.

* Timing... through 9 am EDT this morning.

* Impacts... sensitive outdoor plants left unprotected may be
damaged or killed.

Precautionary/preparedness actions...

A frost advisory means that frost is expected. Sensitive outdoor
plants may be killed if left uncovered.